Aviation Digital Data Service (ADDS)

Output produced by METARs form (1546 UTC 20 May 2018)
found at http://aviationweather.gov/adds/metars/
 
KECG 201142Z 2012/2112 20010KT P6SM VCSH OVC015 
     TEMPO 2013/2015 5SM -SHRA BR 
     FM201500 21012KT P6SM SCT025 BKN035 
     FM201800 21012G20KT P6SM VCSH BKN040 
     FM202300 21010KT P6SM BKN070